Big Bear Station Historical Data
Daily Summary for May 24, 2019 Units:  English    Metric   Both
Next Day »
Daily Weekly Monthly Yearly Custom
  High: Low: Average:
Temperature: 57 °F 30.9 °F 42 °F
Dew Point: 44.5 °F 30.7 °F 37.6 °F
Humidity: 99% 55% 86%
Wind Speed: 5.8mph 0mph 0.8mph
Wind Gust: -999mph - -
Wind- - NW
Pressure: 23.45 in 23.41 in -
Precipitation: 0.01 in    
Historical Graphs
 
 
Tabular Data for May 24, 2019
Time Temperature Dew Point Pressure Wind Wind Speed Wind Gust Humidity Rainfall Rate (Hourly)
00:10 32.9 °F 32.6 °F 23.43 in Calm   -999 mph 99% 0.00 in
00:26 33.3 °F 33 °F 23.43 in Calm   -999 mph 99% 0.00 in
00:41 33.3 °F 33 °F 23.43 in Calm   -999 mph 99% 0.00 in
00:56 32.9 °F 32.6 °F 23.43 in Calm   -999 mph 99% 0.00 in
01:11 33.3 °F 33 °F 23.42 in Calm   -999 mph 99% 0.00 in
01:27 33.3 °F 33 °F 23.42 in Calm   -999 mph 99% 0.00 in
01:42 33.1 °F 32.8 °F 23.42 in Calm   -999 mph 99% 0.00 in
01:57 32.9 °F 32.6 °F 23.42 in Calm   -999 mph 99% 0.00 in
02:12 32.9 °F 32.6 °F 23.42 in Calm   -999 mph 99% 0.00 in
02:27 32.5 °F 32.3 °F 23.42 in Calm   -999 mph 99% 0.00 in
02:43 32.5 °F 32.3 °F 23.42 in Calm   -999 mph 99% 0.00 in
02:58 32.7 °F 32.4 °F 23.42 in Calm   -999 mph 99% 0.00 in
03:13 32.2 °F 32 °F 23.41 in Calm   -999 mph 99% 0.00 in
03:28 32 °F 31.8 °F 23.42 in Calm   -999 mph 99% 0.00 in
03:43 31.6 °F 31.4 °F 23.41 in Calm   -999 mph 99% 0.00 in
03:59 31.5 °F 31.3 °F 23.41 in Calm   -999 mph 99% 0.00 in
04:14 31.1 °F 30.9 °F 23.42 in Calm   -999 mph 99% 0.00 in
04:29 30.9 °F 30.7 °F 23.42 in Calm   -999 mph 99% 0.00 in
04:44 31.5 °F 31.3 °F 23.42 in Calm   -999 mph 99% 0.00 in
04:59 31.5 °F 31.3 °F 23.42 in Calm   -999 mph 99% 0.00 in
05:15 31.5 °F 31.3 °F 23.42 in Calm   -999 mph 99% 0.00 in
05:30 31.6 °F 31.4 °F 23.42 in Calm   -999 mph 99% 0.00 in
05:45 31.6 °F 31.4 °F 23.42 in Calm   -999 mph 99% 0.00 in
06:00 31.5 °F 31.3 °F 23.42 in Calm   -999 mph 99% 0.00 in
06:16 31.3 °F 31.1 °F 23.42 in Calm   -999 mph 99% 0.00 in
06:31 31.1 °F 30.9 °F 23.43 in Calm   -999 mph 99% 0.00 in
06:46 31.1 °F 30.9 °F 23.43 in Calm   -999 mph 99% 0.00 in
07:01 31.5 °F 31.3 °F 23.43 in Calm   -999 mph 99% 0.00 in
07:16 32 °F 31.8 °F 23.43 in Calm   -999 mph 99% 0.00 in
07:32 32.7 °F 32.4 °F 23.43 in Calm   -999 mph 99% 0.00 in
07:47 34.2 °F 33.9 °F 23.43 in Calm   -999 mph 99% 0.00 in
08:02 35.6 °F 35.3 °F 23.43 in WNW 1.1 mph -999 mph 99% 0.00 in
08:17 36.3 °F 36 °F 23.43 in Calm   -999 mph 99% 0.00 in
08:32 37.4 °F 37.1 °F 23.43 in Calm   -999 mph 99% 0.00 in
08:48 38.7 °F 38.4 °F 23.44 in Calm   -999 mph 99% 0.00 in
09:03 40.1 °F 38.5 °F 23.44 in Calm   -999 mph 94% 0.00 in
09:19 41.5 °F 39.6 °F 23.44 in NW 1.1 mph -999 mph 93% 0.00 in
09:34 44.4 °F 40.8 °F 23.44 in NW 4.7 mph -999 mph 87% 0.00 in
09:49 46.8 °F 41.6 °F 23.44 in Calm   -999 mph 82% 0.00 in
10:05 48 °F 40.8 °F 23.44 in NNW 5.3 mph -999 mph 76% 0.00 in
10:20 49.3 °F 41.7 °F 23.44 in NNW 2.7 mph -999 mph 75% 0.00 in
10:35 48.7 °F 40.4 °F 23.44 in NNW 5.8 mph -999 mph 73% 0.00 in
10:50 50 °F 41.7 °F 23.44 in North 4.2 mph -999 mph 73% 0.00 in
11:06 50.9 °F 42.2 °F 23.44 in Calm   -999 mph 72% 0.00 in
11:22 51.4 °F 42.3 °F 23.45 in North 4.7 mph -999 mph 71% 0.00 in
11:37 51.3 °F 44 °F 23.44 in NNW 3.2 mph -999 mph 76% 0.00 in
11:52 50.5 °F 42.5 °F 23.45 in NW 2.7 mph -999 mph 74% 0.00 in
12:08 50 °F 42.4 °F 23.45 in WNW 3.7 mph -999 mph 75% 0.00 in
12:23 49.3 °F 42.4 °F 23.45 in NNW 3.7 mph -999 mph 77% 0.00 in
12:38 48.7 °F 42.1 °F 23.45 in NNW 1.7 mph -999 mph 78% 0.00 in
12:53 48.6 °F 42.7 °F 23.45 in NNW 2.2 mph -999 mph 80% 0.00 in
13:09 48.6 °F 42.1 °F 23.45 in NNW 2.7 mph -999 mph 78% 0.00 in
13:24 48.9 °F 44 °F 23.45 in Calm   -999 mph 83% 0.00 in
13:40 49.1 °F 43.5 °F 23.45 in Calm   -999 mph 81% 0.00 in
13:55 49.1 °F 41.5 °F 23.45 in Calm   -999 mph 75% 0.00 in
14:10 52 °F 42.1 °F 23.45 in Calm   -999 mph 69% 0.00 in
14:25 52.3 °F 42.8 °F 23.44 in NNW 4.2 mph -999 mph 70% 0.00 in
14:40 53.8 °F 41.9 °F 23.44 in NNW 3.2 mph -999 mph 64% 0.00 in
14:56 53.4 °F 43.5 °F 23.44 in NNW 3.7 mph -999 mph 69% 0.00 in
15:11 54.1 °F 41.4 °F 23.44 in Calm   -999 mph 62% 0.00 in
15:26 54.5 °F 39.6 °F 23.44 in Calm   -999 mph 57% 0.00 in
15:42 55.6 °F 41.5 °F 23.44 in Calm   -999 mph 59% 0.00 in
15:57 55.8 °F 39.9 °F 23.43 in Calm   -999 mph 55% 0.00 in
16:12 52.3 °F 40.9 °F 23.43 in SSW 2.2 mph -999 mph 65% 0.00 in
16:27 51.3 °F 40.3 °F 23.43 in Calm   -999 mph 66% 0.00 in
16:42 54.7 °F 41.9 °F 23.43 in Calm   -999 mph 62% 0.00 in
16:58 51.4 °F 40.4 °F 23.43 in SSE 3.2 mph -999 mph 66% 0.00 in
17:13 52.9 °F 41.9 °F 23.43 in North 3.2 mph -999 mph 66% 0.00 in
17:28 50.5 °F 41.8 °F 23.42 in NW 1.1 mph -999 mph 72% 0.00 in
17:43 51.1 °F 42.4 °F 23.42 in Calm   -999 mph 72% 0.00 in
17:59 51.8 °F 42.3 °F 23.42 in Calm   -999 mph 70% 0.00 in
18:14 56.7 °F 44.2 °F 23.42 in NNW 2.2 mph -999 mph 63% 0.00 in
18:29 57 °F 44.5 °F 23.42 in NW 2.2 mph -999 mph 63% 0.00 in
18:44 53.4 °F 43.1 °F 23.41 in Calm   -999 mph 68% 0.00 in
19:00 52.3 °F 42.8 °F 23.41 in Calm   -999 mph 70% 0.00 in
19:15 51.4 °F 42.7 °F 23.42 in Calm   -999 mph 72% 0.00 in
19:30 49.6 °F 42 °F 23.42 in Calm   -999 mph 75% 0.00 in
19:46 46.9 °F 41.4 °F 23.42 in Calm   -999 mph 81% 0.00 in
20:01 45 °F 41.1 °F 23.42 in Calm   -999 mph 86% 0.00 in
20:16 43.9 °F 40.3 °F 23.42 in Calm   -999 mph 87% 0.00 in
20:31 42.1 °F 39.1 °F 23.42 in Calm   -999 mph 89% 0.00 in
20:46 41.2 °F 38.5 °F 23.42 in Calm   -999 mph 90% 0.00 in
21:02 40.5 °F 38.1 °F 23.42 in Calm   -999 mph 91% 0.00 in
21:17 39.7 °F 37.3 °F 23.42 in Calm   -999 mph 91% 0.00 in
21:32 39.2 °F 36.8 °F 23.42 in Calm   -999 mph 91% 0.00 in
21:47 38.7 °F 36.6 °F 23.42 in Calm   -999 mph 92% 0.00 in
22:02 38.1 °F 36 °F 23.42 in Calm   -999 mph 92% 0.00 in
22:18 37.8 °F 36 °F 23.42 in Calm   -999 mph 93% 0.00 in
22:33 37.6 °F 36 °F 23.42 in Calm   -999 mph 94% 0.00 in
22:48 37.2 °F 35.6 °F 23.42 in Calm   -999 mph 94% 0.00 in
23:03 36.7 °F 35.4 °F 23.42 in Calm   -999 mph 95% 0.00 in
23:18 36.5 °F 35.5 °F 23.42 in Calm   -999 mph 96% 0.00 in
23:34 36.3 °F 35.3 °F 23.42 in Calm   -999 mph 96% 0.00 in
23:49 35.8 °F 34.8 °F 23.42 in Calm   -999 mph 96% 0.00 in
Big Bear CA Weather